TimeMST,TemperatureF,Dew PointF,Humidity,Sea Level PressureIn,VisibilityMPH,Wind Direction,Wind SpeedMPH,Gust SpeedMPH,PrecipitationIn,Events,Conditions,WindDirDegrees,DateUTC
12:15 AM,33.8,32.0,93,30.28,10.0,ESE,8.1,-,N/A,,Clear,120,2013-01-02 07:15:00
12:35 AM,35.6,30.2,81,30.27,10.0,SSE,6.9,-,N/A,,Clear,150,2013-01-02 07:35:00
12:55 AM,35.6,30.2,81,30.27,10.0,ESE,5.8,-,N/A,,Clear,120,2013-01-02 07:55:00
1:15 AM,37.4,28.4,70,30.25,10.0,East,8.1,17.3,N/A,,Clear,100,2013-01-02 08:15:00
1:35 AM,35.6,28.4,75,30.24,10.0,SSE,6.9,20.7,N/A,,Clear,150,2013-01-02 08:35:00
1:55 AM,37.4,28.4,70,30.24,10.0,ESE,5.8,-,N/A,,Clear,110,2013-01-02 08:55:00
2:15 AM,33.8,30.2,87,30.24,10.0,SE,5.8,-,N/A,,Clear,130,2013-01-02 09:15:00
2:35 AM,32.0,30.2,93,30.24,10.0,SE,5.8,-,N/A,,Clear,140,2013-01-02 09:35:00
2:55 AM,32.0,30.2,93,30.24,10.0,SE,5.8,-,N/A,,Clear,130,2013-01-02 09:55:00
3:15 AM,33.8,30.2,87,30.24,10.0,ESE,6.9,-,N/A,,Clear,120,2013-01-02 10:15:00
3:35 AM,37.4,26.6,65,30.24,10.0,East,6.9,-,N/A,,Clear,90,2013-01-02 10:35:00
3:55 AM,37.4,26.6,65,30.24,10.0,ESE,6.9,-,N/A,,Clear,120,2013-01-02 10:55:00
4:15 AM,41.0,24.8,53,30.23,10.0,ENE,12.7,-,N/A,,Clear,60,2013-01-02 11:15:00
4:35 AM,41.0,23.0,49,30.23,10.0,ENE,11.5,19.6,N/A,,Clear,70,2013-01-02 11:35:00
4:55 AM,41.0,23.0,49,30.23,10.0,East,9.2,-,N/A,,Clear,100,2013-01-02 11:55:00
5:15 AM,32.0,30.2,93,30.23,10.0,ESE,6.9,-,N/A,,Clear,120,2013-01-02 12:15:00
5:35 AM,33.8,28.4,81,30.23,10.0,ESE,5.8,-,N/A,,Clear,120,2013-01-02 12:35:00
5:55 AM,33.8,28.4,81,30.23,10.0,East,16.1,23.0,N/A,,Clear,90,2013-01-02 12:55:00
6:15 AM,35.6,26.6,70,30.23,10.0,East,10.4,18.4,N/A,,Clear,90,2013-01-02 13:15:00
6:35 AM,41.0,23.0,49,30.22,10.0,East,16.1,25.3,N/A,,Clear,80,2013-01-02 13:35:00
6:55 AM,39.2,23.0,52,30.23,10.0,East,16.1,25.3,N/A,,Clear,90,2013-01-02 13:55:00
7:15 AM,32.0,28.4,87,30.23,10.0,ESE,6.9,-,N/A,,Clear,120,2013-01-02 14:15:00
7:35 AM,32.0,28.4,87,30.22,10.0,SE,8.1,-,N/A,,Clear,140,2013-01-02 14:35:00
7:55 AM,32.0,28.4,87,30.22,10.0,ESE,8.1,-,N/A,,Clear,120,2013-01-02 14:55:00
8:15 AM,32.0,28.4,87,30.22,10.0,ESE,5.8,16.1,N/A,,Clear,120,2013-01-02 15:15:00
8:35 AM,32.0,28.4,87,30.22,10.0,ESE,9.2,-,N/A,,Clear,110,2013-01-02 15:35:00
8:55 AM,33.8,28.4,81,30.22,10.0,East,12.7,18.4,N/A,,Clear,90,2013-01-02 15:55:00
9:15 AM,33.8,26.6,75,30.22,10.0,East,10.4,-,N/A,,Clear,100,2013-01-02 16:15:00
9:35 AM,32.0,28.4,87,30.23,10.0,ESE,9.2,17.3,N/A,,Clear,120,2013-01-02 16:35:00
9:55 AM,32.0,30.2,93,30.24,7.0,ESE,8.1,-,N/A,,Clear,110,2013-01-02 16:55:00
10:15 AM,33.8,28.4,81,30.24,10.0,SE,5.8,-,N/A,,Clear,140,2013-01-02 17:15:00
10:35 AM,35.6,30.2,81,30.24,10.0,ESE,9.2,-,N/A,,Clear,120,2013-01-02 17:35:00
10:55 AM,35.6,30.2,81,30.25,10.0,ESE,6.9,-,N/A,,Clear,110,2013-01-02 17:55:00
11:15 AM,37.4,30.2,75,30.26,10.0,ESE,8.1,-,N/A,,Clear,120,2013-01-02 18:15:00
11:35 AM,39.2,32.0,75,30.26,10.0,SSE,4.6,-,N/A,,Clear,150,2013-01-02 18:35:00
11:55 AM,41.0,30.2,65,30.25,10.0,SSE,4.6,-,N/A,,Clear,150,2013-01-02 18:55:00
12:15 PM,42.8,30.2,61,30.25,10.0,SE,4.6,-,N/A,,Clear,140,2013-01-02 19:15:00
12:35 PM,44.6,30.2,57,30.24,10.0,SSE,4.6,-,N/A,,Clear,150,2013-01-02 19:35:00
12:55 PM,44.6,30.2,57,30.23,10.0,East,3.5,-,N/A,,Clear,100,2013-01-02 19:55:00
1:15 PM,46.4,28.4,50,30.22,10.0,Calm,Calm,-,N/A,,Clear,0,2013-01-02 20:15:00
1:35 PM,46.4,28.4,50,30.21,10.0,SSE,4.6,-,N/A,,Clear,150,2013-01-02 20:35:00
1:55 PM,48.2,30.2,50,30.21,10.0,Calm,Calm,-,N/A,,Clear,0,2013-01-02 20:55:00
2:15 PM,48.2,28.4,46,30.20,10.0,Calm,Calm,-,N/A,,Clear,0,2013-01-02 21:15:00
2:35 PM,50.0,28.4,43,30.20,10.0,ENE,6.9,-,N/A,,Clear,70,2013-01-02 21:35:00
2:55 PM,50.0,26.6,40,30.19,10.0,East,9.2,-,N/A,,Clear,80,2013-01-02 21:55:00
3:15 PM,50.0,26.6,40,30.19,10.0,East,10.4,-,N/A,,Clear,90,2013-01-02 22:15:00
3:35 PM,50.0,26.6,40,30.18,10.0,ENE,11.5,-,N/A,,Clear,70,2013-01-02 22:35:00
4:15 PM,48.2,26.6,43,30.18,10.0,ENE,13.8,18.4,N/A,,Clear,60,2013-01-02 23:15:00
4:35 PM,48.2,26.6,43,30.17,10.0,ENE,16.1,21.9,N/A,,Clear,60,2013-01-02 23:35:00
4:55 PM,46.4,24.8,43,30.17,10.0,ENE,16.1,-,N/A,,Clear,60,2013-01-02 23:55:00
5:15 PM,46.4,24.8,43,30.17,10.0,ENE,18.4,25.3,N/A,,Clear,70,2013-01-03 00:15:00
5:55 PM,44.6,24.8,46,30.17,10.0,ENE,19.6,23.0,N/A,,Clear,60,2013-01-03 00:55:00
6:15 PM,44.6,24.8,46,30.17,10.0,ENE,16.1,24.2,N/A,,Clear,70,2013-01-03 01:15:00
6:35 PM,42.8,24.8,49,30.17,10.0,ENE,15.0,20.7,N/A,,Clear,60,2013-01-03 01:35:00
6:55 PM,42.8,24.8,49,30.17,10.0,ENE,16.1,24.2,N/A,,Clear,70,2013-01-03 01:55:00
7:15 PM,42.8,23.0,46,30.16,10.0,ENE,19.6,23.0,N/A,,Clear,70,2013-01-03 02:15:00
7:35 PM,42.8,23.0,46,30.16,10.0,ENE,17.3,27.6,N/A,,Clear,70,2013-01-03 02:35:00
7:55 PM,41.0,23.0,49,30.16,10.0,ENE,16.1,-,N/A,,Clear,70,2013-01-03 02:55:00
8:15 PM,41.0,24.8,53,30.16,10.0,ENE,16.1,23.0,N/A,,Clear,70,2013-01-03 03:15:00
8:35 PM,41.0,23.0,49,30.15,10.0,ENE,19.6,-,N/A,,Clear,70,2013-01-03 03:35:00
8:55 PM,41.0,23.0,49,30.14,10.0,ENE,20.7,27.6,N/A,,Clear,70,2013-01-03 03:55:00
9:15 PM,41.0,23.0,49,30.14,10.0,ENE,18.4,26.5,N/A,,Clear,60,2013-01-03 04:15:00
9:35 PM,35.6,28.4,75,30.14,10.0,ESE,6.9,-,N/A,,Clear,120,2013-01-03 04:35:00
9:55 PM,35.6,30.2,81,30.15,10.0,East,6.9,-,N/A,,Clear,100,2013-01-03 04:55:00
10:15 PM,37.4,28.4,70,30.15,10.0,ESE,4.6,-,N/A,,Clear,110,2013-01-03 05:15:00
10:35 PM,33.8,30.2,87,30.14,10.0,ESE,4.6,-,N/A,,Clear,110,2013-01-03 05:35:00
10:55 PM,32.0,30.2,93,30.14,7.0,ESE,5.8,-,N/A,,Clear,120,2013-01-03 05:55:00
11:15 PM,33.8,30.2,87,30.14,10.0,East,8.1,-,N/A,,Clear,90,2013-01-03 06:15:00
11:35 PM,39.2,26.6,61,30.14,10.0,ESE,5.8,26.5,N/A,,Clear,120,2013-01-03 06:35:00
11:55 PM,32.0,30.2,93,30.16,10.0,ESE,5.8,-,N/A,,Clear,120,2013-01-03 06:55:00